Time;durP1;ratioP1;P1;durP2;ratioP2;P2;SDS_P1;SDS_P2;PMS_P1;PMS_P2;Temp;Humidity;BMP_temperature;BMP_pressure;BME280_temperature;BME280_humidity;BME280_pressure;Samples;Min_cycle;Max_cycle;Signal;HPM_P1;HPM_P2
2023/01/01 00:00:00;;;;;;;3.83;2.97;;;16.80;99.90;;;;;;5036786;28;20811;-81
2023/01/01 00:02:27;;;;;;;4.80;3.83;;;16.80;99.90;;;;;;5036319;28;20493;-83
2023/01/01 00:04:54;;;;;;;4.77;2.87;;;16.80;99.90;;;;;;5036169;28;20513;-81
2023/01/01 00:07:21;;;;;;;5.67;3.20;;;16.80;99.90;;;;;;5035811;28;20469;-81
2023/01/01 00:12:34;;;;;;;3.30;2.87;;;16.80;99.90;;;;;;5034370;28;20532;-84
2023/01/01 00:15:01;;;;;;;3.80;2.30;;;16.80;99.90;;;;;;5035095;28;20481;-81
2023/01/01 00:17:29;;;;;;;6.07;2.97;;;16.80;99.90;;;;;;5036146;28;20466;-83
2023/01/01 00:19:56;;;;;;;10.23;4.20;;;16.80;99.90;;;;;;5036978;28;20541;-81
2023/01/01 00:22:23;;;;;;;18.77;2.93;;;16.70;99.90;;;;;;5035695;28;20464;-83
2023/01/01 00:24:50;;;;;;;3.67;2.20;;;16.70;99.90;;;;;;5035565;28;20442;-81
2023/01/01 00:27:17;;;;;;;3.03;2.80;;;16.70;99.90;;;;;;5035403;28;20438;-83
2023/01/01 00:29:45;;;;;;;1.93;1.60;;;16.70;99.90;;;;;;5036074;28;20975;-81
2023/01/01 00:32:12;;;;;;;4.80;2.13;;;16.60;99.90;;;;;;5036130;28;20488;-81
2023/01/01 00:34:39;;;;;;;1.77;1.20;;;16.60;99.90;;;;;;5035270;28;20513;-82
2023/01/01 00:37:06;;;;;;;2.83;1.50;;;16.70;99.90;;;;;;5035484;28;20943;-81
2023/01/01 00:39:33;;;;;;;2.07;1.93;;;16.60;99.80;;;;;;5035171;28;20998;-81
2023/01/01 00:41:59;;;;;;;7.40;2.70;;;16.60;99.90;;;;;;5035797;28;20524;-82
2023/01/01 00:44:26;;;;;;;14.67;4.20;;;16.60;99.00;;;;;;5035021;28;20524;-83
2023/01/01 00:46:54;;;;;;;0.77;0.77;;;16.60;99.00;;;;;;5035239;28;20466;-82
2023/01/01 00:49:21;;;;;;;1.80;1.57;;;16.60;99.40;;;;;;5034950;28;20873;-82
2023/01/01 00:51:48;;;;;;;5.93;4.80;;;16.60;99.90;;;;;;5034913;28;20486;-82
2023/01/01 00:54:15;;;;;;;1.83;1.73;;;16.50;99.90;;;;;;5034626;28;20843;-82
2023/01/01 00:56:41;;;;;;;7.90;5.07;;;16.50;99.90;;;;;;5035618;28;20529;-81
2023/01/01 00:59:08;;;;;;;4.20;2.70;;;16.30;99.90;;;;;;5034948;28;20460;-82
2023/01/01 01:01:35;;;;;;;5.33;4.30;;;16.30;99.90;;;;;;5035139;28;20524;-81
2023/01/01 01:04:04;;;;;;;1.57;1.47;;;16.20;99.90;;;;;;5033967;28;20454;-82
2023/01/01 01:06:31;;;;;;;3.63;2.63;;;16.20;99.90;;;;;;5035480;28;20434;-81
2023/01/01 01:08:58;;;;;;;3.87;3.40;;;16.20;99.90;;;;;;5035266;28;20528;-82
2023/01/01 01:11:26;;;;;;;8.63;2.83;;;16.10;99.90;;;;;;5034947;28;20564;-80
2023/01/01 01:13:56;;;;;;;7.33;5.67;;;16.10;99.90;;;;;;5034716;28;20541;-80
2023/01/01 01:16:25;;;;;;;9.07;4.50;;;16.10;99.90;;;;;;5034927;28;20430;-82
2023/01/01 01:18:53;;;;;;;1.93;1.83;;;16.10;99.90;;;;;;5034590;28;20625;-77
2023/01/01 01:21:23;;;;;;;9.00;3.97;;;16.10;99.90;;;;;;5038961;28;20528;-82
2023/01/01 01:23:50;;;;;;;4.70;3.30;;;16.00;99.90;;;;;;5040102;28;20464;-87
2023/01/01 01:26:19;;;;;;;2.90;1.93;;;16.00;99.90;;;;;;5039092;28;20442;-82
2023/01/01 01:28:46;;;;;;;1.63;1.53;;;16.00;99.90;;;;;;5038109;28;20521;-81
2023/01/01 01:31:13;;;;;;;2.83;2.63;;;16.00;99.90;;;;;;5038672;28;20479;-84
2023/01/01 01:33:42;;;;;;;3.80;2.20;;;16.00;99.90;;;;;;5039157;28;20463;-81
2023/01/01 01:36:10;;;;;;;2.30;2.10;;;16.00;99.90;;;;;;5038159;28;20525;-84
2023/01/01 01:38:39;;;;;;;12.33;3.73;;;15.90;99.90;;;;;;5038851;28;20441;-82
2023/01/01 01:41:06;;;;;;;8.23;2.90;;;15.90;99.90;;;;;;5039096;28;20446;-80
2023/01/01 01:43:52;;;;;;;3.07;2.63;;;15.90;99.90;;;;;;5039165;28;20990;-81
2023/01/01 01:46:25;;;;;;;1.80;1.70;;;15.80;99.90;;;;;;5038355;28;20438;-81
2023/01/01 01:48:52;;;;;;;0.90;0.90;;;15.80;99.90;;;;;;5039054;28;20426;-78
2023/01/01 01:51:26;;;;;;;6.77;1.90;;;15.80;99.90;;;;;;5038991;28;21028;-84
2023/01/01 01:53:59;;;;;;;1.83;0.87;;;15.80;99.90;;;;;;5037624;28;20839;-80
2023/01/01 01:56:31;;;;;;;1.27;1.00;;;15.80;99.90;;;;;;5038699;28;20524;-82
2023/01/01 01:58:59;;;;;;;2.37;2.07;;;15.80;99.90;;;;;;5039841;28;20438;-81
2023/01/01 02:01:26;;;;;;;2.30;0.93;;;15.70;99.50;;;;;;5038804;28;20524;-81
2023/01/01 02:03:57;;;;;;;1.73;1.63;;;15.70;98.90;;;;;;5037692;28;20566;-81
2023/01/01 02:06:26;;;;;;;7.70;1.30;;;15.70;99.40;;;;;;5038139;28;20872;-82
2023/01/01 02:08:56;;;;;;;1.30;1.20;;;15.70;99.90;;;;;;5037943;28;20452;-78
2023/01/01 02:11:23;;;;;;;0.63;0.63;;;15.60;99.90;;;;;;5038219;28;20548;-82
2023/01/01 02:13:51;;;;;;;2.20;2.00;;;15.50;99.50;;;;;;5038181;28;20458;-83
2023/01/01 02:16:23;;;;;;;2.20;1.83;;;15.50;99.60;;;;;;5037944;28;20955;-80
2023/01/01 02:18:56;;;;;;;0.77;0.60;;;15.50;99.80;;;;;;5036156;28;20505;-81
2023/01/01 02:21:28;;;;;;;1.93;1.30;;;15.40;99.90;;;;;;5038055;28;20521;-83
2023/01/01 02:24:09;;;;;;;2.03;1.87;;;15.40;99.40;;;;;;5037340;28;20540;-81
2023/01/01 02:26:46;;;;;;;2.73;1.07;;;15.40;99.60;;;;;;5037934;28;20426;-81
2023/01/01 02:29:38;;;;;;;1.37;1.13;;;15.40;99.20;;;;;;5038183;28;20520;-82
2023/01/01 02:32:10;;;;;;;0.50;0.50;;;15.40;99.30;;;;;;5037354;28;20534;-82
2023/01/01 02:34:40;;;;;;;1.93;1.17;;;15.30;99.90;;;;;;5037731;28;20514;-83
2023/01/01 02:37:10;;;;;;;1.80;0.50;;;15.30;99.90;;;;;;5038023;28;20823;-83
2023/01/01 02:39:42;;;;;;;0.70;0.60;;;15.30;99.90;;;;;;5037618;28;20438;-86
2023/01/01 02:42:09;;;;;;;1.03;0.60;;;15.20;99.90;;;;;;5038199;28;20820;-81
2023/01/01 02:44:41;;;;;;;2.33;2.20;;;15.20;99.90;;;;;;5037272;28;20465;-84
2023/01/01 02:47:13;;;;;;;0.50;0.30;;;15.20;99.90;;;;;;5036802;28;20422;-82
2023/01/01 02:49:48;;;;;;;0.67;0.67;;;15.20;99.90;;;;;;5037831;28;20800;-84
2023/01/01 02:52:31;;;;;;;4.67;0.77;;;15.20;99.90;;;;;;5037087;28;20481;-82
2023/01/01 02:55:04;;;;;;;1.07;0.63;;;15.10;99.90;;;;;;5036584;28;20448;-82
2023/01/01 02:57:36;;;;;;;0.60;0.50;;;15.10;99.90;;;;;;5037620;28;20442;-81
2023/01/01 03:00:26;;;;;;;1.27;1.17;;;15.10;99.90;;;;;;5037546;28;20434;-83
2023/01/01 03:03:08;;;;;;;0.90;0.80;;;15.10;99.90;;;;;;5037632;28;21001;-83
2023/01/01 03:08:30;;;;;;;0.90;0.50;;;15.00;99.90;;;;;;5036288;28;20429;-83
2023/01/01 03:11:02;;;;;;;20.20;2.17;;;14.90;99.90;;;;;;5036877;28;20429;-80
2023/01/01 03:13:36;;;;;;;0.63;0.63;;;14.90;99.90;;;;;;5037606;28;20843;-82
2023/01/01 03:16:11;;;;;;;0.70;0.50;;;14.90;99.90;;;;;;5035866;28;20473;-81
2023/01/01 03:18:44;;;;;;;2.00;1.20;;;14.90;99.90;;;;;;5035654;28;20854;-83
2023/01/01 03:21:15;;;;;;;0.80;0.60;;;14.90;99.90;;;;;;5037527;28;20457;-81
2023/01/01 03:23:48;;;;;;;2.40;1.20;;;14.90;99.90;;;;;;5036631;28;20466;-83
2023/01/01 03:26:19;;;;;;;0.50;0.47;;;14.80;99.90;;;;;;5036395;28;20484;-83
2023/01/01 03:28:49;;;;;;;0.50;0.40;;;14.90;99.90;;;;;;5037238;28;20427;-82
2023/01/01 03:31:20;;;;;;;6.33;1.43;;;14.80;99.90;;;;;;5036358;28;20496;-81
2023/01/01 03:33:51;;;;;;;0.80;0.50;;;14.80;99.90;;;;;;5036274;28;20458;-82
2023/01/01 03:36:23;;;;;;;0.80;0.80;;;14.80;99.90;;;;;;5036671;28;20525;-82
2023/01/01 03:38:52;;;;;;;0.80;0.67;;;14.80;99.90;;;;;;5036490;28;20453;-84
2023/01/01 03:41:26;;;;;;;5.80;1.53;;;14.80;99.90;;;;;;5036593;28;20440;-82
2023/01/01 03:43:59;;;;;;;0.87;0.67;;;14.80;99.90;;;;;;5035532;28;20454;-82
2023/01/01 03:46:32;;;;;;;4.77;0.60;;;14.80;99.90;;;;;;5036608;28;20419;-83
2023/01/01 03:48:59;;;;;;;2.10;2.00;;;14.80;99.90;;;;;;5036578;28;20426;-82
2023/01/01 03:51:38;;;;;;;0.90;0.63;;;14.80;99.90;;;;;;5036158;28;20528;-82
2023/01/01 03:54:13;;;;;;;0.83;0.60;;;14.80;99.90;;;;;;5035017;28;21304;-83
2023/01/01 03:56:45;;;;;;;0.60;0.50;;;14.80;99.90;;;;;;5036490;28;20457;-82
2023/01/01 03:59:19;;;;;;;1.20;1.10;;;14.80;99.90;;;;;;5036299;28;20414;-80
2023/01/01 04:01:52;;;;;;;9.10;1.27;;;14.90;99.90;;;;;;5036903;28;20433;-81
2023/01/01 04:04:19;;;;;;;1.00;0.60;;;14.80;99.90;;;;;;5035680;28;20923;-81
2023/01/01 04:06:46;;;;;;;0.83;0.83;;;14.80;99.90;;;;;;5036156;28;20446;-83
2023/01/01 04:09:17;;;;;;;0.50;0.50;;;14.80;99.90;;;;;;5035878;28;20502;-81
2023/01/01 04:12:02;;;;;;;0.50;0.40;;;14.80;99.90;;;;;;5036239;28;20446;-81
2023/01/01 04:14:30;;;;;;;0.60;0.57;;;14.70;99.90;;;;;;5035752;28;20938;-82
2023/01/01 04:16:59;;;;;;;1.67;1.23;;;14.70;99.90;;;;;;5034995;28;20442;-81
2023/01/01 04:19:26;;;;;;;14.73;1.03;;;14.70;99.90;;;;;;5036180;28;20912;-81
2023/01/01 04:21:53;;;;;;;1.37;0.93;;;14.70;99.90;;;;;;5035620;28;20476;-83
2023/01/01 04:24:21;;;;;;;5.23;0.80;;;14.70;99.90;;;;;;5035078;28;20756;-80
2023/01/01 04:26:49;;;;;;;0.90;0.80;;;14.80;99.90;;;;;;5036366;28;20441;-82
2023/01/01 04:29:16;;;;;;;0.50;0.40;;;14.80;99.90;;;;;;5036046;28;20438;-81
2023/01/01 04:31:43;;;;;;;3.70;0.87;;;14.80;99.90;;;;;;5035703;28;20538;-79
2023/01/01 04:34:11;;;;;;;1.03;1.00;;;14.90;99.90;;;;;;5035400;28;20441;-81
2023/01/01 04:36:38;;;;;;;1.30;1.10;;;14.90;99.90;;;;;;5035698;28;20442;-82
2023/01/01 04:39:06;;;;;;;3.43;0.97;;;14.90;99.90;;;;;;5036305;28;20444;-79
2023/01/01 04:41:33;;;;;;;1.00;0.97;;;14.90;99.90;;;;;;5035996;28;20521;-81
2023/01/01 04:44:00;;;;;;;1.63;1.53;;;14.90;99.90;;;;;;5035038;28;20565;-84
2023/01/01 04:46:27;;;;;;;2.50;0.83;;;14.90;99.90;;;;;;5036287;28;20529;-81
2023/01/01 04:48:54;;;;;;;1.43;1.03;;;14.90;99.90;;;;;;5035659;28;20444;-78
2023/01/01 04:51:23;;;;;;;0.50;0.43;;;14.90;99.90;;;;;;5035571;28;20448;-81
2023/01/01 04:53:49;;;;;;;2.13;1.77;;;14.90;99.90;;;;;;5034025;28;20483;-84
2023/01/01 04:56:18;;;;;;;2.60;1.60;;;15.00;99.90;;;;;;5034746;28;20995;-80
2023/01/01 04:58:45;;;;;;;1.53;1.43;;;15.00;99.90;;;;;;5036158;28;20438;-81
2023/01/01 05:01:18;;;;;;;1.00;0.90;;;15.00;99.90;;;;;;5035761;28;20434;-81
2023/01/01 05:03:45;;;;;;;0.50;0.40;;;15.00;99.90;;;;;;5036454;28;20839;-81
2023/01/01 05:06:13;;;;;;;0.60;0.60;;;15.00;99.90;;;;;;5054903;28;20433;-84
2023/01/01 05:08:43;;;;;;;0.83;0.70;;;15.00;99.90;;;;;;5055765;28;20430;-89
2023/01/01 05:11:12;;;;;;;0.50;0.40;;;14.90;99.90;;;;;;5056364;28;20442;-86
2023/01/01 05:13:41;;;;;;;1.63;0.87;;;15.00;99.90;;;;;;5056530;28;20501;-81
2023/01/01 05:16:10;;;;;;;2.13;1.00;;;15.00;99.90;;;;;;5055025;28;20822;-86
2023/01/01 05:18:37;;;;;;;9.70;2.40;;;15.00;99.90;;;;;;5055406;28;20457;-85
2023/01/01 05:21:06;;;;;;;1.10;1.00;;;15.00;99.90;;;;;;5055749;28;20501;-85
2023/01/01 05:23:33;;;;;;;0.60;0.60;;;15.00;99.90;;;;;;5056357;28;20501;-88
2023/01/01 05:26:09;;;;;;;2.60;0.97;;;14.90;99.90;;;;;;5055500;28;20489;-85
2023/01/01 05:28:36;;;;;;;0.90;0.90;;;14.90;99.90;;;;;;5056451;28;20426;-86
2023/01/01 05:31:06;;;;;;;0.60;0.60;;;14.90;99.90;;;;;;5056157;28;20469;-80
2023/01/01 05:33:33;;;;;;;1.63;0.63;;;14.90;99.90;;;;;;5054402;28;20490;-87
2023/01/01 05:36:00;;;;;;;0.70;0.60;;;14.90;99.90;;;;;;5054563;28;20437;-87
2023/01/01 05:38:26;;;;;;;1.00;0.80;;;14.90;99.90;;;;;;5054761;28;20425;-85
2023/01/01 05:40:53;;;;;;;0.83;0.83;;;14.90;99.90;;;;;;5039053;28;20920;-81
2023/01/01 05:43:22;;;;;;;5.93;0.60;;;14.90;99.90;;;;;;5037212;28;20460;-82
2023/01/01 05:45:48;;;;;;;1.80;0.83;;;14.90;99.90;;;;;;5036284;28;20449;-78
2023/01/01 05:48:15;;;;;;;1.23;0.80;;;15.00;99.90;;;;;;5035155;28;20434;-81
2023/01/01 05:50:42;;;;;;;2.07;1.07;;;14.90;99.90;;;;;;5034872;28;20528;-82
2023/01/01 05:53:09;;;;;;;2.20;1.43;;;14.90;99.90;;;;;;5035013;28;20490;-82
2023/01/01 05:55:36;;;;;;;1.30;0.70;;;15.00;99.90;;;;;;5034626;28;20522;-82
2023/01/01 05:58:03;;;;;;;0.70;0.70;;;15.00;99.90;;;;;;5044592;28;20450;-84
2023/01/01 06:00:31;;;;;;;19.73;2.33;;;14.90;99.90;;;;;;5034320;28;20516;-83
2023/01/01 06:02:58;;;;;;;0.50;0.40;;;14.90;99.90;;;;;;5034618;28;20457;-82
2023/01/01 06:05:25;;;;;;;0.60;0.53;;;14.80;99.90;;;;;;5035744;28;20434;-82
2023/01/01 06:07:51;;;;;;;1.53;0.90;;;14.70;99.90;;;;;;5037858;28;20444;-80
2023/01/01 06:10:18;;;;;;;0.80;0.80;;;14.60;99.90;;;;;;5038242;28;20514;-82
2023/01/01 06:12:45;;;;;;;1.23;1.10;;;14.60;99.90;;;;;;5038311;28;20568;-80
2023/01/01 06:15:12;;;;;;;0.60;0.57;;;14.60;99.90;;;;;;5037769;28;21009;-84
2023/01/01 06:17:40;;;;;;;1.23;1.00;;;14.60;99.90;;;;;;5037119;28;20532;-82
2023/01/01 06:20:07;;;;;;;1.93;1.73;;;14.70;99.90;;;;;;5037851;28;20873;-82
2023/01/01 06:22:36;;;;;;;16.23;0.80;;;14.70;99.90;;;;;;5037836;28;20542;-83
2023/01/01 06:25:03;;;;;;;11.20;0.80;;;14.70;99.90;;;;;;5036669;28;20453;-82
2023/01/01 06:27:30;;;;;;;9.27;0.90;;;14.70;99.90;;;;;;5038143;28;20525;-82
2023/01/01 06:29:57;;;;;;;1.70;0.80;;;14.70;99.90;;;;;;5037906;28;20960;-82
2023/01/01 06:32:24;;;;;;;0.80;0.80;;;14.70;99.90;;;;;;5037308;28;20466;-82
2023/01/01 06:34:52;;;;;;;1.60;0.60;;;14.70;99.90;;;;;;5037352;28;20481;-82
2023/01/01 06:37:19;;;;;;;0.80;0.60;;;14.70;99.90;;;;;;5038040;28;20965;-82
2023/01/01 06:39:46;;;;;;;8.97;0.80;;;14.70;99.90;;;;;;5038170;28;20819;-83
2023/01/01 06:42:13;;;;;;;6.53;0.90;;;14.70;99.90;;;;;;5037559;28;20519;-82
2023/01/01 06:44:39;;;;;;;1.13;0.70;;;14.70;99.90;;;;;;5036665;28;20441;-82
2023/01/01 06:47:07;;;;;;;0.60;0.50;;;14.70;99.90;;;;;;5040417;28;20530;-81
2023/01/01 06:49:34;;;;;;;1.63;1.13;;;14.70;99.90;;;;;;5042141;28;20452;-79
2023/01/01 06:52:02;;;;;;;1.37;0.70;;;14.70;99.90;;;;;;5036447;28;20456;-82
2023/01/01 06:54:29;;;;;;;1.80;1.07;;;14.70;99.90;;;;;;5036483;28;20981;-81
2023/01/01 06:56:55;;;;;;;7.63;1.83;;;14.60;99.90;;;;;;5036685;28;20469;-82
2023/01/01 06:59:22;;;;;;;2.87;1.03;;;14.60;99.90;;;;;;5037449;28;20442;-81
2023/01/01 07:01:49;;;;;;;1.30;0.70;;;14.60;99.90;;;;;;5037608;28;20448;-82
2023/01/01 07:04:16;;;;;;;0.90;0.60;;;14.50;99.90;;;;;;5036984;28;20528;-82
2023/01/01 07:06:43;;;;;;;1.63;0.80;;;14.50;99.90;;;;;;5037480;28;20919;-83
2023/01/01 07:09:11;;;;;;;0.60;0.50;;;14.40;99.90;;;;;;5042899;28;20529;-83
2023/01/01 07:11:38;;;;;;;2.97;1.50;;;14.30;99.90;;;;;;5040466;28;20442;-82
2023/01/01 07:14:05;;;;;;;1.07;0.90;;;14.30;99.90;;;;;;5036414;28;20520;-82
2023/01/01 07:16:32;;;;;;;1.60;0.50;;;14.40;99.90;;;;;;5035986;28;20865;-83
2023/01/01 07:19:00;;;;;;;2.10;0.80;;;14.40;99.90;;;;;;5035882;28;20464;-81
2023/01/01 07:21:29;;;;;;;2.10;2.00;;;14.40;99.90;;;;;;5036495;28;20500;-82
2023/01/01 07:23:57;;;;;;;0.90;0.70;;;14.40;99.90;;;;;;5035292;28;20920;-81
2023/01/01 07:26:26;;;;;;;2.07;1.20;;;14.40;99.90;;;;;;5037080;28;20444;-85
2023/01/01 07:28:53;;;;;;;1.43;1.33;;;14.30;99.90;;;;;;5037153;28;20541;-83
2023/01/01 07:31:20;;;;;;;1.23;1.13;;;14.20;99.90;;;;;;5036379;28;20452;-80
2023/01/01 07:33:47;;;;;;;0.93;0.90;;;14.10;99.90;;;;;;5035562;28;20481;-78
2023/01/01 07:36:14;;;;;;;1.00;1.00;;;14.00;99.90;;;;;;5035671;28;20442;-82
2023/01/01 07:38:41;;;;;;;0.93;0.73;;;13.90;99.90;;;;;;5036370;28;20446;-82
2023/01/01 07:41:08;;;;;;;1.63;1.10;;;13.80;99.90;;;;;;5036004;28;20442;-84
2023/01/01 07:43:36;;;;;;;1.20;1.03;;;13.60;99.90;;;;;;5035577;28;20458;-83
2023/01/01 07:46:03;;;;;;;1.43;1.00;;;13.40;99.90;;;;;;5034596;28;20442;-81
2023/01/01 07:48:31;;;;;;;0.50;0.40;;;13.40;99.90;;;;;;5035769;28;20445;-83
2023/01/01 07:50:57;;;;;;;0.80;0.60;;;13.30;99.90;;;;;;5035779;28;20481;-80
2023/01/01 07:53:24;;;;;;;1.43;0.67;;;13.20;99.90;;;;;;5035349;28;20474;-85
2023/01/01 07:55:51;;;;;;;2.80;1.33;;;13.10;99.90;;;;;;5034432;28;20537;-78
2023/01/01 07:58:18;;;;;;;2.73;1.10;;;13.10;99.90;;;;;;5035832;28;20442;-84
2023/01/01 08:00:47;;;;;;;0.70;0.60;;;13.00;99.90;;;;;;5035204;28;20456;-83
2023/01/01 08:03:15;;;;;;;2.20;0.80;;;13.00;99.90;;;;;;5035784;28;21014;-82
2023/01/01 08:05:42;;;;;;;1.57;0.83;;;13.00;99.90;;;;;;5034411;28;21002;-82
2023/01/01 08:08:09;;;;;;;3.50;0.80;;;13.00;99.90;;;;;;5035501;28;20877;-81
2023/01/01 08:10:37;;;;;;;3.07;0.97;;;13.00;99.90;;;;;;5035444;28;20462;-80
2023/01/01 08:13:05;;;;;;;0.90;0.70;;;13.10;99.90;;;;;;5035607;28;20560;-82
2023/01/01 08:15:32;;;;;;;1.13;1.07;;;13.10;99.90;;;;;;5033794;28;20465;-81
2023/01/01 08:18:02;;;;;;;8.63;2.03;;;13.10;99.90;;;;;;5033788;28;20477;-82
2023/01/01 08:20:30;;;;;;;3.30;1.50;;;13.10;99.90;;;;;;5035755;28;20513;-82
2023/01/01 08:22:57;;;;;;;0.60;0.60;;;13.10;99.90;;;;;;5034997;28;20457;-81
2023/01/01 08:25:24;;;;;;;6.10;1.03;;;13.20;99.90;;;;;;5034124;28;20533;-80
2023/01/01 08:27:51;;;;;;;2.83;0.90;;;13.20;99.90;;;;;;5034834;28;20448;-80
2023/01/01 08:30:18;;;;;;;1.70;0.87;;;13.20;99.90;;;;;;5035020;28;20445;-81
2023/01/01 08:32:45;;;;;;;1.10;1.10;;;13.30;99.90;;;;;;5034516;28;20534;-82
2023/01/01 08:35:13;;;;;;;1.43;1.17;;;13.40;99.90;;;;;;5033630;28;20474;-82
2023/01/01 08:37:40;;;;;;;0.70;0.70;;;13.50;99.90;;;;;;5034621;28;20442;-82
2023/01/01 08:40:09;;;;;;;0.73;0.50;;;13.50;99.90;;;;;;5034774;28;20533;-82
2023/01/01 08:42:36;;;;;;;2.63;1.47;;;13.60;99.90;;;;;;5034370;28;20541;-81
2023/01/01 08:45:04;;;;;;;0.97;0.67;;;13.60;99.90;;;;;;5034290;28;20480;-80
2023/01/01 08:47:30;;;;;;;6.80;0.80;;;13.60;99.90;;;;;;5034596;28;20442;-82
2023/01/01 08:49:58;;;;;;;2.30;0.63;;;13.60;99.90;;;;;;5034331;28;20444;-82
2023/01/01 08:52:26;;;;;;;6.13;0.87;;;13.60;99.90;;;;;;5034529;28;20560;-82
2023/01/01 08:54:53;;;;;;;3.53;1.90;;;13.60;99.90;;;;;;5034224;28;20596;-82
2023/01/01 08:57:19;;;;;;;5.37;0.97;;;13.70;99.90;;;;;;5034656;28;21039;-82
2023/01/01 08:59:46;;;;;;;3.10;0.80;;;13.70;99.90;;;;;;5034785;28;20470;-82
2023/01/01 09:02:13;;;;;;;9.37;1.20;;;13.70;99.90;;;;;;5033781;28;20544;-83
2023/01/01 09:04:40;;;;;;;0.67;0.60;;;13.70;99.90;;;;;;5033589;28;20525;-82
2023/01/01 09:07:07;;;;;;;1.10;0.80;;;13.70;99.90;;;;;;5033965;28;20434;-81
2023/01/01 09:09:35;;;;;;;0.60;0.50;;;13.70;99.90;;;;;;5034842;28;20833;-83
2023/01/01 09:12:05;;;;;;;1.43;0.80;;;13.70;99.90;;;;;;5034356;28;20931;-82
2023/01/01 09:14:32;;;;;;;0.77;0.77;;;13.80;99.90;;;;;;5033942;28;20504;-80
2023/01/01 09:16:59;;;;;;;5.53;0.90;;;13.80;99.90;;;;;;5033726;28;20529;-81
2023/01/01 09:19:26;;;;;;;5.80;2.20;;;13.70;99.90;;;;;;5034485;28;20442;-82
2023/01/01 09:21:53;;;;;;;0.70;0.67;;;13.70;99.90;;;;;;5034253;28;20446;-82
2023/01/01 09:24:20;;;;;;;0.97;0.87;;;13.80;99.90;;;;;;5033876;28;20442;-84
2023/01/01 09:26:49;;;;;;;3.17;1.07;;;13.80;99.90;;;;;;5034680;28;20505;-81
2023/01/01 09:29:19;;;;;;;4.83;2.83;;;13.80;99.90;;;;;;5034309;28;20808;-80
2023/01/01 09:31:46;;;;;;;0.60;0.60;;;13.80;99.90;;;;;;5034088;28;20446;-79
2023/01/01 09:34:13;;;;;;;1.83;0.80;;;13.80;99.90;;;;;;5033543;28;20509;-85
2023/01/01 09:36:40;;;;;;;1.27;1.17;;;13.80;99.90;;;;;;5033823;28;20532;-82
2023/01/01 09:39:07;;;;;;;2.87;2.40;;;13.80;99.90;;;;;;5034087;28;20944;-84
2023/01/01 09:41:44;;;;;;;0.70;0.60;;;13.80;99.90;;;;;;5037750;28;20503;-82
2023/01/01 09:44:29;;;;;;;2.50;2.20;;;13.80;99.90;;;;;;5037083;28;21528;-80
2023/01/01 09:47:01;;;;;;;2.97;1.20;;;13.80;99.90;;;;;;5038409;28;20783;-81
2023/01/01 09:49:34;;;;;;;1.63;0.90;;;13.80;99.90;;;;;;5038498;28;20418;-81
2023/01/01 09:52:04;;;;;;;1.47;1.37;;;13.80;99.90;;;;;;5037757;28;20455;-82
2023/01/01 09:54:33;;;;;;;2.67;0.80;;;13.80;99.90;;;;;;5037545;28;20477;-82
2023/01/01 09:57:03;;;;;;;1.03;1.00;;;13.80;99.90;;;;;;5037265;28;20865;-84
2023/01/01 09:59:32;;;;;;;8.33;0.90;;;13.80;99.90;;;;;;5038318;28;20445;-82
2023/01/01 10:02:08;;;;;;;9.47;1.30;;;13.80;99.90;;;;;;5038996;28;20438;-81
2023/01/01 10:04:49;;;;;;;10.60;1.63;;;13.80;99.90;;;;;;5036682;28;20418;-82
2023/01/01 10:07:25;;;;;;;0.80;0.77;;;13.80;99.90;;;;;;5037565;28;20504;-82
2023/01/01 10:10:03;;;;;;;2.40;1.00;;;13.80;99.90;;;;;;5037419;28;20414;-82
2023/01/01 10:12:39;;;;;;;0.97;0.97;;;13.80;99.90;;;;;;5037587;28;20530;-85
2023/01/01 10:15:15;;;;;;;1.13;1.13;;;13.80;99.90;;;;;;5036986;28;20462;-83
2023/01/01 10:17:46;;;;;;;1.87;1.07;;;13.80;99.90;;;;;;5036460;28;20955;-82
2023/01/01 10:20:20;;;;;;;1.13;1.00;;;13.80;99.90;;;;;;5037954;28;20533;-81
2023/01/01 10:22:52;;;;;;;5.80;1.07;;;13.80;99.90;;;;;;5038077;28;20544;-78
2023/01/01 10:25:21;;;;;;;6.00;1.47;;;13.80;99.90;;;;;;5036595;28;20419;-81
2023/01/01 10:27:52;;;;;;;1.33;1.00;;;13.90;99.90;;;;;;5037511;28;20466;-82
2023/01/01 10:30:23;;;;;;;4.97;2.33;;;13.90;99.90;;;;;;5037401;28;20956;-81
2023/01/01 10:32:52;;;;;;;0.50;0.40;;;13.90;99.90;;;;;;5037527;28;20468;-80
2023/01/01 10:35:21;;;;;;;0.70;0.70;;;13.90;99.90;;;;;;5036709;28;20556;-82
2023/01/01 10:37:51;;;;;;;1.13;1.13;;;14.00;99.90;;;;;;5036573;28;20989;-82
2023/01/01 10:40:20;;;;;;;4.20;1.30;;;14.00;99.90;;;;;;5036836;28;20438;-81
2023/01/01 10:42:49;;;;;;;15.03;0.80;;;14.00;99.90;;;;;;5036839;28;20545;-78
2023/01/01 10:45:17;;;;;;;1.03;0.90;;;13.90;99.90;;;;;;5035959;28;20956;-84
2023/01/01 10:48:14;;;;;;;3.47;1.67;;;13.90;99.90;;;;;;5036448;28;20448;-82
2023/01/01 10:50:47;;;;;;;4.27;1.63;;;14.00;99.90;;;;;;5037336;28;20892;-80
2023/01/01 10:53:27;;;;;;;1.90;0.60;;;14.00;99.90;;;;;;5036441;28;20480;-82
2023/01/01 10:56:01;;;;;;;1.37;0.87;;;14.00;99.90;;;;;;5036447;28;20462;-78
2023/01/01 10:58:36;;;;;;;2.03;1.70;;;14.00;99.90;;;;;;5036875;28;20469;-81
2023/01/01 11:01:05;;;;;;;1.10;0.80;;;14.00;99.90;;;;;;5036545;28;20508;-80
2023/01/01 11:03:33;;;;;;;0.70;0.70;;;14.00;99.90;;;;;;5036527;28;20466;-81
2023/01/01 11:06:02;;;;;;;0.80;0.50;;;14.10;99.90;;;;;;5035966;28;20591;-85
2023/01/01 11:08:30;;;;;;;0.60;0.60;;;14.10;99.90;;;;;;5037134;28;20814;-84
2023/01/01 11:10:58;;;;;;;0.60;0.50;;;14.20;99.90;;;;;;5036610;28;20446;-82
2023/01/01 11:13:26;;;;;;;2.30;1.23;;;14.30;99.90;;;;;;5036514;28;20462;-84
2023/01/01 11:15:53;;;;;;;0.93;0.87;;;14.20;99.90;;;;;;5035434;28;20485;-81
2023/01/01 11:18:23;;;;;;;1.03;1.03;;;14.30;99.90;;;;;;5035167;28;20977;-82
2023/01/01 11:20:56;;;;;;;1.77;0.83;;;14.40;99.90;;;;;;5036350;28;20468;-82
2023/01/01 11:23:31;;;;;;;0.70;0.70;;;14.50;99.90;;;;;;5036422;28;20545;-82
2023/01/01 11:26:00;;;;;;;0.60;0.47;;;14.50;99.90;;;;;;5035813;28;20803;-81
2023/01/01 11:28:30;;;;;;;0.60;0.50;;;14.50;99.90;;;;;;5035963;28;20968;-82
2023/01/01 11:31:12;;;;;;;1.00;0.70;;;14.50;99.90;;;;;;5035789;28;20449;-83
2023/01/01 11:33:44;;;;;;;0.70;0.60;;;14.40;99.90;;;;;;5036325;28;20553;-83
2023/01/01 11:36:21;;;;;;;0.70;0.50;;;14.40;99.90;;;;;;5035318;28;20425;-83
2023/01/01 11:38:50;;;;;;;1.20;1.07;;;14.40;99.90;;;;;;5035815;28;20422;-82
2023/01/01 11:41:17;;;;;;;1.27;1.27;;;14.30;99.90;;;;;;5035778;28;20473;-82
2023/01/01 11:43:46;;;;;;;4.00;1.10;;;14.30;99.90;;;;;;5035589;28;20540;-81
2023/01/01 11:46:23;;;;;;;0.80;0.60;;;14.40;99.90;;;;;;5035146;28;20522;-82
2023/01/01 11:48:50;;;;;;;0.97;0.87;;;14.40;99.90;;;;;;5035934;28;20769;-84
2023/01/01 11:51:31;;;;;;;1.73;1.27;;;14.40;99.90;;;;;;5035662;28;20444;-82
2023/01/01 11:54:22;;;;;;;2.50;0.60;;;14.30;99.90;;;;;;5035171;28;20470;-82
2023/01/01 11:56:52;;;;;;;2.13;1.90;;;14.40;99.90;;;;;;5035681;28;20433;-82
2023/01/01 11:59:23;;;;;;;3.33;1.30;;;14.30;99.90;;;;;;5036142;28;20533;-83
2023/01/01 12:01:53;;;;;;;3.90;1.90;;;14.30;99.90;;;;;;5035418;28;20438;-82
2023/01/01 12:04:28;;;;;;;0.60;0.60;;;14.20;99.90;;;;;;5034925;28;20438;-82
2023/01/01 12:07:02;;;;;;;1.47;0.60;;;14.20;99.90;;;;;;5035574;28;20469;-80
2023/01/01 12:09:37;;;;;;;0.60;0.60;;;14.20;99.90;;;;;;5035892;28;20521;-82
2023/01/01 12:12:10;;;;;;;1.53;1.10;;;14.20;99.90;;;;;;5035412;28;20432;-84
2023/01/01 12:14:42;;;;;;;2.50;0.83;;;14.20;99.90;;;;;;5034404;28;20971;-82
2023/01/01 12:17:17;;;;;;;2.17;1.63;;;14.20;99.90;;;;;;5033542;28;20542;-84
2023/01/01 12:19:54;;;;;;;7.57;1.83;;;14.20;99.90;;;;;;5035405;28;20441;-82
2023/01/01 12:22:23;;;;;;;1.73;1.07;;;14.20;99.90;;;;;;5034430;28;20469;-82
2023/01/01 12:24:51;;;;;;;0.50;0.50;;;14.20;99.90;;;;;;5035474;28;20436;-82
2023/01/01 12:27:35;;;;;;;1.23;0.63;;;14.20;99.90;;;;;;5035887;28;20505;-82
2023/01/01 12:30:13;;;;;;;1.97;1.33;;;14.20;99.90;;;;;;5034998;28;20441;-80
2023/01/01 12:33:02;;;;;;;2.30;1.43;;;14.30;99.90;;;;;;5034948;28;20489;-82
2023/01/01 12:35:42;;;;;;;1.20;1.00;;;14.30;99.90;;;;;;5034733;28;20568;-82
2023/01/01 12:38:24;;;;;;;9.40;1.33;;;14.20;99.90;;;;;;5035370;28;20473;-84
2023/01/01 12:40:58;;;;;;;17.93;1.20;;;14.20;99.90;;;;;;5034674;28;20469;-83
2023/01/01 12:43:37;;;;;;;1.33;1.17;;;14.30;99.90;;;;;;5034905;28;20488;-83
2023/01/01 12:46:28;;;;;;;1.93;1.33;;;14.30;99.90;;;;;;5034050;28;20429;-81
2023/01/01 12:49:14;;;;;;;0.60;0.40;;;14.20;99.90;;;;;;5034656;28;20449;-81
2023/01/01 12:51:48;;;;;;;1.73;0.60;;;14.20;99.90;;;;;;5035183;28;20450;-80
2023/01/01 12:55:02;;;;;;;1.60;1.50;;;14.20;99.90;;;;;;5034403;28;20865;-82
2023/01/01 12:57:35;;;;;;;2.60;2.10;;;14.20;99.90;;;;;;5034689;28;20434;-81
2023/01/01 13:00:11;;;;;;;0.50;0.50;;;14.20;99.90;;;;;;5035547;28;20429;-80
2023/01/01 13:02:46;;;;;;;2.30;1.27;;;14.10;99.90;;;;;;5035582;28;20457;-82
2023/01/01 13:05:17;;;;;;;2.93;2.63;;;14.10;99.90;;;;;;5034122;28;20426;-81